sensor_id;sensor_type;location;lat;lon;timestamp;pressure;altitude;pressure_sealevel;temperature;humidity
73817;BME280;62146;53.232;-1.304;2022-11-10T00:00:42;99987.56;;;10.44;100.00
73817;BME280;62146;53.232;-1.304;2022-11-10T00:03:10;99979.34;;;10.45;100.00
73817;BME280;62146;53.232;-1.304;2022-11-10T00:05:37;99982.31;;;10.49;100.00
73817;BME280;62146;53.232;-1.304;2022-11-10T00:08:05;99983.66;;;10.51;100.00
73817;BME280;62146;53.232;-1.304;2022-11-10T00:10:35;99976.22;;;10.48;100.00
73817;BME280;62146;53.232;-1.304;2022-11-10T00:13:33;99984.78;;;10.55;100.00
73817;BME280;62146;53.232;-1.304;2022-11-10T00:16:03;99983.41;;;10.53;100.00
73817;BME280;62146;53.232;-1.304;2022-11-10T00:18:48;99983.44;;;10.58;100.00
73817;BME280;62146;53.232;-1.304;2022-11-10T00:21:16;99982.16;;;10.60;100.00
73817;BME280;62146;53.232;-1.304;2022-11-10T00:23:44;99985.34;;;10.62;100.00
73817;BME280;62146;53.232;-1.304;2022-11-10T00:26:18;99968.59;;;10.57;100.00
73817;BME280;62146;53.232;-1.304;2022-11-10T00:28:45;99966.50;;;10.59;100.00
73817;BME280;62146;53.232;-1.304;2022-11-10T00:31:12;99970.47;;;10.56;100.00
73817;BME280;62146;53.232;-1.304;2022-11-10T00:33:40;99971.25;;;10.57;100.00
73817;BME280;62146;53.232;-1.304;2022-11-10T00:36:08;99978.41;;;10.56;100.00
73817;BME280;62146;53.232;-1.304;2022-11-10T00:38:35;99983.16;;;10.54;100.00
73817;BME280;62146;53.232;-1.304;2022-11-10T00:41:02;99985.00;;;10.54;100.00
73817;BME280;62146;53.232;-1.304;2022-11-10T00:43:29;99986.06;;;10.53;100.00
73817;BME280;62146;53.232;-1.304;2022-11-10T00:45:56;99989.78;;;10.52;100.00
73817;BME280;62146;53.232;-1.304;2022-11-10T00:48:23;99982.84;;;10.51;100.00
73817;BME280;62146;53.232;-1.304;2022-11-10T00:50:50;99983.66;;;10.51;100.00
73817;BME280;62146;53.232;-1.304;2022-11-10T00:53:17;99982.84;;;10.51;100.00
73817;BME280;62146;53.232;-1.304;2022-11-10T00:55:45;99975.72;;;10.51;100.00
73817;BME280;62146;53.232;-1.304;2022-11-10T00:58:11;99973.28;;;10.50;100.00
73817;BME280;62146;53.232;-1.304;2022-11-10T01:00:38;99972.25;;;10.51;100.00
73817;BME280;62146;53.232;-1.304;2022-11-10T01:03:05;99989.78;;;10.52;100.00
73817;BME280;62146;53.232;-1.304;2022-11-10T01:05:36;99995.06;;;10.52;100.00
73817;BME280;62146;53.232;-1.304;2022-11-10T01:08:03;99993.22;;;10.52;100.00
73817;BME280;62146;53.232;-1.304;2022-11-10T01:10:30;99998.25;;;10.54;100.00
73817;BME280;62146;53.232;-1.304;2022-11-10T01:12:57;100000.91;;;10.54;100.00
73817;BME280;62146;53.232;-1.304;2022-11-10T01:15:24;100013.13;;;10.55;100.00
73817;BME280;62146;53.232;-1.304;2022-11-10T01:17:54;100014.16;;;10.54;100.00
73817;BME280;62146;53.232;-1.304;2022-11-10T01:20:22;100020.25;;;10.54;100.00
73817;BME280;62146;53.232;-1.304;2022-11-10T01:22:48;100014.97;;;10.54;100.00
73817;BME280;62146;53.232;-1.304;2022-11-10T01:25:15;100021.09;;;10.55;100.00
73817;BME280;62146;53.232;-1.304;2022-11-10T01:27:42;100021.09;;;10.55;100.00
73817;BME280;62146;53.232;-1.304;2022-11-10T01:30:09;100022.13;;;10.54;100.00
73817;BME280;62146;53.232;-1.304;2022-11-10T01:32:35;100017.63;;;10.54;100.00
73817;BME280;62146;53.232;-1.304;2022-11-10T01:35:02;100015.78;;;10.55;100.00
73817;BME280;62146;53.232;-1.304;2022-11-10T01:37:29;100013.94;;;10.55;100.00
73817;BME280;62146;53.232;-1.304;2022-11-10T01:39:55;100028.00;;;10.56;100.00
73817;BME280;62146;53.232;-1.304;2022-11-10T01:42:24;100017.88;;;10.53;100.00
73817;BME280;62146;53.232;-1.304;2022-11-10T01:45:25;100022.69;;;10.56;100.00
73817;BME280;62146;53.232;-1.304;2022-11-10T01:48:02;100016.81;;;10.54;100.00
73817;BME280;62146;53.232;-1.304;2022-11-10T01:50:33;100013.63;;;10.52;100.00
73817;BME280;62146;53.232;-1.304;2022-11-10T01:53:04;100021.09;;;10.55;100.00
73817;BME280;62146;53.232;-1.304;2022-11-10T01:55:34;100017.63;;;10.54;100.00
73817;BME280;62146;53.232;-1.304;2022-11-10T01:58:02;100006.78;;;10.56;100.00
73817;BME280;62146;53.232;-1.304;2022-11-10T02:00:29;100008.38;;;10.57;100.00
73817;BME280;62146;53.232;-1.304;2022-11-10T02:03:48;100008.38;;;10.57;100.00
73817;BME280;62146;53.232;-1.304;2022-11-10T02:05:48;100021.63;;;10.57;100.00
73817;BME280;62146;53.232;-1.304;2022-11-10T02:08:16;100018.44;;;10.55;100.00
73817;BME280;62146;53.232;-1.304;2022-11-10T02:10:43;100037.53;;;10.57;100.00
73817;BME280;62146;53.232;-1.304;2022-11-10T02:13:10;100049.19;;;10.56;100.00
73817;BME280;62146;53.232;-1.304;2022-11-10T02:15:37;100040.44;;;10.55;100.00
73817;BME280;62146;53.232;-1.304;2022-11-10T02:18:04;100045.50;;;10.57;100.00
73817;BME280;62146;53.232;-1.304;2022-11-10T02:20:31;100046.56;;;10.56;100.00
73817;BME280;62146;53.232;-1.304;2022-11-10T02:22:57;100050.78;;;10.57;100.00
73817;BME280;62146;53.232;-1.304;2022-11-10T02:25:28;100054.25;;;10.57;100.00
73817;BME280;62146;53.232;-1.304;2022-11-10T02:27:57;100054.03;;;10.59;100.00
73817;BME280;62146;53.232;-1.304;2022-11-10T02:30:24;100056.41;;;10.60;100.00
73817;BME280;62146;53.232;-1.304;2022-11-10T02:32:53;100049.50;;;10.59;100.00
73817;BME280;62146;53.232;-1.304;2022-11-10T02:35:19;100051.66;;;10.62;100.00
73817;BME280;62146;53.232;-1.304;2022-11-10T02:37:46;100029.63;;;10.62;100.00
73817;BME280;62146;53.232;-1.304;2022-11-10T02:40:12;100037.84;;;10.60;100.00
73817;BME280;62146;53.232;-1.304;2022-11-10T02:42:39;100036.00;;;10.61;100.00
73817;BME280;62146;53.232;-1.304;2022-11-10T02:45:06;100039.22;;;10.63;100.00
73817;BME280;62146;53.232;-1.304;2022-11-10T02:47:34;100042.88;;;10.62;100.00
73817;BME280;62146;53.232;-1.304;2022-11-10T02:50:00;100043.69;;;10.62;100.00
73817;BME280;62146;53.232;-1.304;2022-11-10T02:52:27;100062.25;;;10.62;100.00
73817;BME280;62146;53.232;-1.304;2022-11-10T02:54:53;100071.03;;;10.63;100.00
73817;BME280;62146;53.232;-1.304;2022-11-10T02:57:20;100068.13;;;10.64;100.00
73817;BME280;62146;53.232;-1.304;2022-11-10T02:59:46;100068.91;;;10.65;100.00
73817;BME280;62146;53.232;-1.304;2022-11-10T03:02:13;100058.88;;;10.67;100.00
73817;BME280;62146;53.232;-1.304;2022-11-10T03:04:40;100064.72;;;10.69;100.00
73817;BME280;62146;53.232;-1.304;2022-11-10T03:07:07;100071.38;;;10.71;100.00
73817;BME280;62146;53.232;-1.304;2022-11-10T03:09:33;100073.56;;;10.74;100.00
73817;BME280;62146;53.232;-1.304;2022-11-10T03:12:00;100080.75;;;10.78;100.00
73817;BME280;62146;53.232;-1.304;2022-11-10T03:14:26;100089.25;;;10.80;100.00
73817;BME280;62146;53.232;-1.304;2022-11-10T03:16:53;100098.31;;;10.84;100.00
73817;BME280;62146;53.232;-1.304;2022-11-10T03:19:19;100095.97;;;10.88;100.00
73817;BME280;62146;53.232;-1.304;2022-11-10T03:21:46;100100.00;;;10.90;100.00
73817;BME280;62146;53.232;-1.304;2022-11-10T03:24:12;100098.69;;;10.93;100.00
73817;BME280;62146;53.232;-1.304;2022-11-10T03:26:39;100091.03;;;10.96;100.00
73817;BME280;62146;53.232;-1.304;2022-11-10T03:29:05;100095.31;;;10.97;100.00
73817;BME280;62146;53.232;-1.304;2022-11-10T03:31:32;100093.75;;;11.01;100.00
73817;BME280;62146;53.232;-1.304;2022-11-10T03:33:59;100087.91;;;11.04;100.00
73817;BME280;62146;53.232;-1.304;2022-11-10T03:36:25;100086.91;;;11.05;100.00
73817;BME280;62146;53.232;-1.304;2022-11-10T03:38:52;100084.25;;;11.05;100.00
73817;BME280;62146;53.232;-1.304;2022-11-10T03:41:18;100083.97;;;11.06;100.00
73817;BME280;62146;53.232;-1.304;2022-11-10T03:43:47;100082.13;;;11.07;100.00
73817;BME280;62146;53.232;-1.304;2022-11-10T03:46:14;100091.69;;;11.08;100.00
73817;BME280;62146;53.232;-1.304;2022-11-10T03:48:41;100090.88;;;11.07;100.00
73817;BME280;62146;53.232;-1.304;2022-11-10T03:51:08;100083.19;;;11.06;100.00
73817;BME280;62146;53.232;-1.304;2022-11-10T03:53:34;100084.78;;;11.07;100.00
73817;BME280;62146;53.232;-1.304;2022-11-10T03:56:02;100094.59;;;11.06;100.00
73817;BME280;62146;53.232;-1.304;2022-11-10T03:58:30;100084.25;;;11.05;100.00
73817;BME280;62146;53.232;-1.304;2022-11-10T04:00:57;100088.22;;;11.07;100.00
73817;BME280;62146;53.232;-1.304;2022-11-10T04:03:24;100089.28;;;11.06;100.00
73817;BME280;62146;53.232;-1.304;2022-11-10T04:05:51;100094.59;;;11.06;100.00
73817;BME280;62146;53.232;-1.304;2022-11-10T04:08:36;100087.44;;;11.07;100.00
73817;BME280;62146;53.232;-1.304;2022-11-10T04:11:21;100091.69;;;11.08;100.00
73817;BME280;62146;53.232;-1.304;2022-11-10T04:14:06;100098.03;;;11.07;100.00
73817;BME280;62146;53.232;-1.304;2022-11-10T04:16:51;100086.63;;;11.06;100.00
73817;BME280;62146;53.232;-1.304;2022-11-10T04:19:18;100095.38;;;11.07;100.00
73817;BME280;62146;53.232;-1.304;2022-11-10T04:21:45;100086.38;;;11.08;100.00
73817;BME280;62146;53.232;-1.304;2022-11-10T04:24:11;100089.03;;;11.08;100.00
73817;BME280;62146;53.232;-1.304;2022-11-10T04:26:38;100082.69;;;11.09;100.00
73817;BME280;62146;53.232;-1.304;2022-11-10T04:29:07;100083.72;;;11.08;100.00
73817;BME280;62146;53.232;-1.304;2022-11-10T04:31:36;100097.56;;;11.10;100.00
73817;BME280;62146;53.232;-1.304;2022-11-10T04:34:04;100089.03;;;11.08;100.00
73817;BME280;62146;53.232;-1.304;2022-11-10T04:36:33;100096.19;;;11.07;100.00
73817;BME280;62146;53.232;-1.304;2022-11-10T04:39:00;100090.34;;;11.05;100.00
73817;BME280;62146;53.232;-1.304;2022-11-10T04:41:28;100083.19;;;11.06;100.00
73817;BME280;62146;53.232;-1.304;2022-11-10T04:43:59;100082.91;;;11.07;100.00
73817;BME280;62146;53.232;-1.304;2022-11-10T04:46:30;100074.66;;;11.04;100.00
73817;BME280;62146;53.232;-1.304;2022-11-10T04:48:58;100076.28;;;11.05;100.00
73817;BME280;62146;53.232;-1.304;2022-11-10T04:51:27;100072.81;;;11.04;100.00
73817;BME280;62146;53.232;-1.304;2022-11-10T04:53:54;100085.03;;;11.05;100.00
73817;BME280;62146;53.232;-1.304;2022-11-10T04:56:23;100083.13;;;11.01;100.00
73817;BME280;62146;53.232;-1.304;2022-11-10T04:58:50;100085.56;;;11.07;100.00
73817;BME280;62146;53.232;-1.304;2022-11-10T05:01:20;100094.59;;;11.06;100.00
73817;BME280;62146;53.232;-1.304;2022-11-10T05:03:48;100084.25;;;11.05;100.00
73817;BME280;62146;53.232;-1.304;2022-11-10T05:06:16;100085.56;;;11.07;100.00
73817;BME280;62146;53.232;-1.304;2022-11-10T05:08:44;100089.59;;;11.10;100.00
73817;BME280;62146;53.232;-1.304;2022-11-10T05:11:11;100093.31;;;11.09;100.00
73817;BME280;62146;53.232;-1.304;2022-11-10T05:13:38;100100.47;;;11.08;100.00
73817;BME280;62146;53.232;-1.304;2022-11-10T05:16:05;100092.25;;;11.10;100.00
73817;BME280;62146;53.232;-1.304;2022-11-10T05:18:32;100093.84;;;11.11;100.00
73817;BME280;62146;53.232;-1.304;2022-11-10T05:20:59;100095.19;;;11.13;100.00
73817;BME280;62146;53.232;-1.304;2022-11-10T05:23:25;100093.09;;;11.15;100.00
73817;BME280;62146;53.232;-1.304;2022-11-10T05:26:06;100096.31;;;11.17;100.00
73817;BME280;62146;53.232;-1.304;2022-11-10T05:28:33;100102.97;;;11.20;100.00
73817;BME280;62146;53.232;-1.304;2022-11-10T05:30:59;100106.97;;;11.22;100.00
73817;BME280;62146;53.232;-1.304;2022-11-10T05:33:26;100116.03;;;11.26;100.00
73817;BME280;62146;53.232;-1.304;2022-11-10T05:35:53;100121.09;;;11.27;100.00
73817;BME280;62146;53.232;-1.304;2022-11-10T05:38:19;100124.28;;;11.29;100.00
73817;BME280;62146;53.232;-1.304;2022-11-10T05:40:46;100122.22;;;11.31;100.00
73817;BME280;62146;53.232;-1.304;2022-11-10T05:43:12;100125.41;;;11.33;100.00
73817;BME280;62146;53.232;-1.304;2022-11-10T05:45:39;100133.13;;;11.35;100.00
73817;BME280;62146;53.232;-1.304;2022-11-10T05:48:06;100131.81;;;11.37;100.00
73817;BME280;62146;53.232;-1.304;2022-11-10T05:50:32;100127.09;;;11.39;100.00
73817;BME280;62146;53.232;-1.304;2022-11-10T05:52:59;100129.22;;;11.42;100.00
73817;BME280;62146;53.232;-1.304;2022-11-10T05:55:27;100132.94;;;11.41;100.00
73817;BME280;62146;53.232;-1.304;2022-11-10T05:57:54;100125.28;;;11.45;100.00
73817;BME280;62146;53.232;-1.304;2022-11-10T06:00:25;100117.88;;;11.47;100.00
73817;BME280;62146;53.232;-1.304;2022-11-10T06:05:34;100120.00;;;11.50;100.00
73817;BME280;62146;53.232;-1.304;2022-11-10T06:08:03;100111.25;;;11.49;100.00
73817;BME280;62146;53.232;-1.304;2022-11-10T06:10:31;100114.47;;;11.51;100.00
73817;BME280;62146;53.232;-1.304;2022-11-10T06:12:58;100108.34;;;11.51;100.00
73817;BME280;62146;53.232;-1.304;2022-11-10T06:15:25;100103.84;;;11.51;100.00
73817;BME280;62146;53.232;-1.304;2022-11-10T06:17:53;100112.88;;;11.50;100.00
73817;BME280;62146;53.232;-1.304;2022-11-10T06:20:20;100116.31;;;11.51;100.00
73817;BME280;62146;53.232;-1.304;2022-11-10T06:23:01;100122.44;;;11.51;100.00
73817;BME280;62146;53.232;-1.304;2022-11-10T06:25:31;100121.06;;;11.49;100.00
73817;BME280;62146;53.232;-1.304;2022-11-10T06:27:58;100125.56;;;11.48;100.00
73817;BME280;62146;53.232;-1.304;2022-11-10T06:30:25;100129.03;;;11.49;100.00
73817;BME280;62146;53.232;-1.304;2022-11-10T06:32:52;100134.59;;;11.47;100.00
73817;BME280;62146;53.232;-1.304;2022-11-10T06:35:20;100143.38;;;11.48;100.00
73817;BME280;62146;53.232;-1.304;2022-11-10T06:38:04;100127.66;;;11.46;100.00
73817;BME280;62146;53.232;-1.304;2022-11-10T06:40:32;100136.19;;;11.48;100.00
73817;BME280;62146;53.232;-1.304;2022-11-10T06:42:58;100145.75;;;11.49;100.00
73817;BME280;62146;53.232;-1.304;2022-11-10T06:45:25;100147.91;;;11.52;100.00
73817;BME280;62146;53.232;-1.304;2022-11-10T06:48:04;100137.56;;;11.51;100.00
73817;BME280;62146;53.232;-1.304;2022-11-10T06:50:32;100147.66;;;11.53;100.00
73817;BME280;62146;53.232;-1.304;2022-11-10T06:52:59;100152.75;;;11.55;100.00
73817;BME280;62146;53.232;-1.304;2022-11-10T06:55:26;100152.47;;;11.56;100.00
73817;BME280;62146;53.232;-1.304;2022-11-10T06:57:53;100161.25;;;11.57;100.00
73817;BME280;62146;53.232;-1.304;2022-11-10T07:00:20;100151.94;;;11.54;100.00
73817;BME280;62146;53.232;-1.304;2022-11-10T07:02:47;100150.31;;;11.53;100.00
73817;BME280;62146;53.232;-1.304;2022-11-10T07:05:13;100163.84;;;11.52;100.00
73817;BME280;62146;53.232;-1.304;2022-11-10T07:07:40;100166.78;;;11.51;100.00
73817;BME280;62146;53.232;-1.304;2022-11-10T07:10:07;100164.91;;;11.51;100.00
73817;BME280;62146;53.232;-1.304;2022-11-10T07:12:34;100163.31;;;11.50;100.00
73817;BME280;62146;53.232;-1.304;2022-11-10T07:15:00;100177.13;;;11.52;100.00
73817;BME280;62146;53.232;-1.304;2022-11-10T07:17:27;100169.44;;;11.51;100.00
73817;BME280;62146;53.232;-1.304;2022-11-10T07:19:53;100165.72;;;11.51;100.00
73817;BME280;62146;53.232;-1.304;2022-11-10T07:22:20;100154.81;;;11.53;100.00
73817;BME280;62146;53.232;-1.304;2022-11-10T07:24:46;100175.03;;;11.54;100.00
73817;BME280;62146;53.232;-1.304;2022-11-10T07:27:13;100163.59;;;11.53;100.00
73817;BME280;62146;53.232;-1.304;2022-11-10T07:29:39;100176.63;;;11.55;100.00
73817;BME280;62146;53.232;-1.304;2022-11-10T07:32:06;100177.97;;;11.57;100.00
73817;BME280;62146;53.232;-1.304;2022-11-10T07:34:32;100180.13;;;11.60;100.00
73817;BME280;62146;53.232;-1.304;2022-11-10T07:36:59;100174.59;;;11.62;100.00
73817;BME280;62146;53.232;-1.304;2022-11-10T07:39:25;100172.47;;;11.64;100.00
73817;BME280;62146;53.232;-1.304;2022-11-10T07:41:52;100185.25;;;11.67;100.00
73817;BME280;62146;53.232;-1.304;2022-11-10T07:44:18;100181.31;;;11.69;100.00
73817;BME280;62146;53.232;-1.304;2022-11-10T07:46:45;100187.94;;;11.72;100.00
73817;BME280;62146;53.232;-1.304;2022-11-10T07:49:12;100193.81;;;11.74;100.00
73817;BME280;62146;53.232;-1.304;2022-11-10T07:51:39;100198.34;;;11.73;100.00
73817;BME280;62146;53.232;-1.304;2022-11-10T07:54:05;100199.13;;;11.74;100.00
73817;BME280;62146;53.232;-1.304;2022-11-10T07:56:32;100206.03;;;11.75;100.00
73817;BME280;62146;53.232;-1.304;2022-11-10T07:58:58;100217.47;;;11.75;100.00
73817;BME280;62146;53.232;-1.304;2022-11-10T08:01:25;100223.59;;;11.76;100.00
73817;BME280;62146;53.232;-1.304;2022-11-10T08:03:51;100222.53;;;11.77;100.00
73817;BME280;62146;53.232;-1.304;2022-11-10T08:06:18;100235.56;;;11.78;100.00
73817;BME280;62146;53.232;-1.304;2022-11-10T08:08:45;100245.94;;;11.79;100.00
73817;BME280;62146;53.232;-1.304;2022-11-10T08:11:12;100235.63;;;11.83;100.00
73817;BME280;62146;53.232;-1.304;2022-11-10T08:13:40;100239.88;;;11.84;100.00
73817;BME280;62146;53.232;-1.304;2022-11-10T08:16:06;100245.47;;;11.87;100.00
73817;BME280;62146;53.232;-1.304;2022-11-10T08:18:33;100251.38;;;11.89;100.00
73817;BME280;62146;53.232;-1.304;2022-11-10T08:21:02;100242.34;;;11.90;100.00
73817;BME280;62146;53.232;-1.304;2022-11-10T08:23:29;100228.78;;;11.92;100.00
73817;BME280;62146;53.232;-1.304;2022-11-10T08:25:59;100225.88;;;11.93;100.00
73817;BME280;62146;53.232;-1.304;2022-11-10T08:28:26;100237.88;;;11.96;100.00
73817;BME280;62146;53.232;-1.304;2022-11-10T08:30:53;100237.63;;;11.97;100.00
73817;BME280;62146;53.232;-1.304;2022-11-10T08:33:20;100254.09;;;11.99;100.00
73817;BME280;62146;53.232;-1.304;2022-11-10T08:35:50;100252.00;;;12.01;100.00
73817;BME280;62146;53.232;-1.304;2022-11-10T08:38:21;100250.72;;;12.04;100.00
73817;BME280;62146;53.232;-1.304;2022-11-10T08:40:48;100243.00;;;12.07;100.00
73817;BME280;62146;53.232;-1.304;2022-11-10T08:43:16;100244.63;;;12.08;100.00
73817;BME280;62146;53.232;-1.304;2022-11-10T08:45:43;100263.84;;;12.15;100.00
73817;BME280;62146;53.232;-1.304;2022-11-10T08:48:13;100250.03;;;12.18;100.00
73817;BME280;62146;53.232;-1.304;2022-11-10T08:50:39;100261.53;;;12.23;100.00
73817;BME280;62146;53.232;-1.304;2022-11-10T08:53:10;100247.47;;;12.28;100.00
73817;BME280;62146;53.232;-1.304;2022-11-10T08:55:38;100255.25;;;12.34;100.00
73817;BME280;62146;53.232;-1.304;2022-11-10T08:58:05;100275.75;;;12.38;100.00
73817;BME280;62146;53.232;-1.304;2022-11-10T09:00:34;100270.47;;;12.43;100.00
73817;BME280;62146;53.232;-1.304;2022-11-10T09:03:06;100268.88;;;12.47;100.00
73817;BME280;62146;53.232;-1.304;2022-11-10T09:05:34;100265.22;;;12.53;100.00
73817;BME280;62146;53.232;-1.304;2022-11-10T09:08:02;100276.69;;;12.58;100.00
73817;BME280;62146;53.232;-1.304;2022-11-10T09:10:30;100277.00;;;12.62;100.00
73817;BME280;62146;53.232;-1.304;2022-11-10T09:13:00;100287.94;;;12.65;100.00
73817;BME280;62146;53.232;-1.304;2022-11-10T09:15:28;100289.81;;;12.70;100.00
73817;BME280;62146;53.232;-1.304;2022-11-10T09:17:59;100293.88;;;12.72;100.00
73817;BME280;62146;53.232;-1.304;2022-11-10T09:20:27;100290.69;;;12.75;100.00
73817;BME280;62146;53.232;-1.304;2022-11-10T09:22:55;100300.00;;;12.78;100.00
73817;BME280;62146;53.232;-1.304;2022-11-10T09:25:22;100302.16;;;12.81;100.00
73817;BME280;62146;53.232;-1.304;2022-11-10T09:27:48;100301.66;;;12.84;100.00
73817;BME280;62146;53.232;-1.304;2022-11-10T09:30:15;100305.66;;;12.86;100.00
73817;BME280;62146;53.232;-1.304;2022-11-10T09:32:43;100303.28;;;12.89;100.00
73817;BME280;62146;53.232;-1.304;2022-11-10T09:35:12;100282.28;;;12.93;100.00
73817;BME280;62146;53.232;-1.304;2022-11-10T09:37:39;100280.97;;;12.95;100.00
73817;BME280;62146;53.232;-1.304;2022-11-10T09:40:07;100275.94;;;12.99;100.00
73817;BME280;62146;53.232;-1.304;2022-11-10T09:42:39;100273.53;;;13.02;100.00
73817;BME280;62146;53.232;-1.304;2022-11-10T09:48:05;100302.31;;;13.05;100.00
73817;BME280;62146;53.232;-1.304;2022-11-10T09:50:35;100316.47;;;13.11;100.00
73817;BME280;62146;53.232;-1.304;2022-11-10T09:53:03;100317.00;;;13.12;100.00
73817;BME280;62146;53.232;-1.304;2022-11-10T09:55:43;100319.66;;;13.12;100.00
73817;BME280;62146;53.232;-1.304;2022-11-10T09:58:12;100322.91;;;13.14;100.00
73817;BME280;62146;53.232;-1.304;2022-11-10T10:00:41;100305.28;;;13.13;100.00
73817;BME280;62146;53.232;-1.304;2022-11-10T10:03:17;100307.22;;;13.18;100.00
73817;BME280;62146;53.232;-1.304;2022-11-10T10:06:07;100305.06;;;13.20;100.00
73817;BME280;62146;53.232;-1.304;2022-11-10T10:09:02;100297.09;;;13.25;100.00
73817;BME280;62146;53.232;-1.304;2022-11-10T10:25:37;100333.19;;;13.47;100.00
73817;BME280;62146;53.232;-1.304;2022-11-10T10:28:34;100329.22;;;13.49;100.00
73817;BME280;62146;53.232;-1.304;2022-11-10T10:33:46;100348.44;;;13.56;100.00
73817;BME280;62146;53.232;-1.304;2022-11-10T10:36:21;100344.41;;;13.59;100.00
73817;BME280;62146;53.232;-1.304;2022-11-10T10:39:15;100342.03;;;13.62;100.00
73817;BME280;62146;53.232;-1.304;2022-11-10T10:41:45;100332.97;;;13.63;100.00
73817;BME280;62146;53.232;-1.304;2022-11-10T10:44:14;100342.88;;;13.67;100.00
73817;BME280;62146;53.232;-1.304;2022-11-10T10:46:56;100328.50;;;13.73;100.00
73817;BME280;62146;53.232;-1.304;2022-11-10T10:49:32;100340.50;;;13.76;100.00
73817;BME280;62146;53.232;-1.304;2022-11-10T10:52:13;100344.50;;;13.78;100.00
73817;BME280;62146;53.232;-1.304;2022-11-10T10:54:40;100337.63;;;13.82;100.00
73817;BME280;62146;53.232;-1.304;2022-11-10T10:57:26;100338.41;;;13.83;100.00
73817;BME280;62146;53.232;-1.304;2022-11-10T11:02:40;100329.91;;;13.91;100.00
73817;BME280;62146;53.232;-1.304;2022-11-10T11:05:18;100325.38;;;13.91;100.00
73817;BME280;62146;53.232;-1.304;2022-11-10T11:07:57;100324.88;;;13.94;100.00
73817;BME280;62146;53.232;-1.304;2022-11-10T11:13:31;100328.63;;;13.98;100.00
73817;BME280;62146;53.232;-1.304;2022-11-10T11:16:03;100313.94;;;14.00;100.00
73817;BME280;62146;53.232;-1.304;2022-11-10T11:18:31;100308.09;;;14.03;100.00
73817;BME280;62146;53.232;-1.304;2022-11-10T11:24:04;100319.03;;;14.07;100.00
73817;BME280;62146;53.232;-1.304;2022-11-10T11:26:49;100319.31;;;14.10;100.00
73817;BME280;62146;53.232;-1.304;2022-11-10T11:29:40;100325.16;;;14.12;100.00
73817;BME280;62146;53.232;-1.304;2022-11-10T11:34:59;100310.78;;;14.18;100.00
73817;BME280;62146;53.232;-1.304;2022-11-10T11:38:29;100322.53;;;14.22;100.00
73817;BME280;62146;53.232;-1.304;2022-11-10T11:44:04;100322.81;;;14.25;100.00
73817;BME280;62146;53.232;-1.304;2022-11-10T11:47:08;100312.41;;;14.29;100.00
73817;BME280;62146;53.232;-1.304;2022-11-10T11:49:48;100334.84;;;14.33;100.00
73817;BME280;62146;53.232;-1.304;2022-11-10T11:58:23;100333.50;;;14.40;100.00
73817;BME280;62146;53.232;-1.304;2022-11-10T12:04:10;100353.53;;;14.47;100.00
73817;BME280;62146;53.232;-1.304;2022-11-10T12:21:02;100339.66;;;14.80;100.00
73817;BME280;62146;53.232;-1.304;2022-11-10T12:29:09;100353.53;;;15.01;100.00
73817;BME280;62146;53.232;-1.304;2022-11-10T12:31:42;100345.00;;;15.09;100.00
73817;BME280;62146;53.232;-1.304;2022-11-10T12:36:41;100371.94;;;15.32;100.00
73817;BME280;62146;53.232;-1.304;2022-11-10T12:42:14;100359.34;;;15.48;100.00
73817;BME280;62146;53.232;-1.304;2022-11-10T12:44:59;100386.59;;;15.54;100.00
73817;BME280;62146;53.232;-1.304;2022-11-10T12:47:38;100380.44;;;15.59;100.00
73817;BME280;62146;53.232;-1.304;2022-11-10T12:50:23;100373.44;;;15.68;100.00
73817;BME280;62146;53.232;-1.304;2022-11-10T12:52:56;100392.16;;;15.73;100.00
73817;BME280;62146;53.232;-1.304;2022-11-10T12:55:34;100384.88;;;15.83;100.00
73817;BME280;62146;53.232;-1.304;2022-11-10T12:58:04;100393.97;;;15.92;100.00
73817;BME280;62146;53.232;-1.304;2022-11-10T13:00:35;100389.38;;;15.97;100.00
73817;BME280;62146;53.232;-1.304;2022-11-10T13:03:13;100389.38;;;15.97;100.00
73817;BME280;62146;53.232;-1.304;2022-11-10T13:05:41;100386.16;;;16.00;100.00
73817;BME280;62146;53.232;-1.304;2022-11-10T13:08:22;100402.47;;;16.04;100.00
73817;BME280;62146;53.232;-1.304;2022-11-10T13:13:45;100403.56;;;15.98;100.00
73817;BME280;62146;53.232;-1.304;2022-11-10T13:18:59;100420.69;;;15.97;100.00
73817;BME280;62146;53.232;-1.304;2022-11-10T13:22:03;100408.66;;;15.94;100.00
73817;BME280;62146;53.232;-1.304;2022-11-10T13:24:32;100412.41;;;15.93;100.00
73817;BME280;62146;53.232;-1.304;2022-11-10T13:30:03;100402.53;;;15.89;100.00
73817;BME280;62146;53.232;-1.304;2022-11-10T13:32:33;100404.66;;;15.87;100.00
73817;BME280;62146;53.232;-1.304;2022-11-10T13:37:55;100399.84;;;15.84;100.00
73817;BME280;62146;53.232;-1.304;2022-11-10T13:45:31;100402.53;;;15.89;100.00
73817;BME280;62146;53.232;-1.304;2022-11-10T13:53:14;100399.03;;;15.93;100.00
73817;BME280;62146;53.232;-1.304;2022-11-10T13:56:08;100403.59;;;15.93;100.00
73817;BME280;62146;53.232;-1.304;2022-11-10T13:58:41;100410.00;;;15.97;100.00
73817;BME280;62146;53.232;-1.304;2022-11-10T14:06:15;100428.72;;;15.97;100.00
73817;BME280;62146;53.232;-1.304;2022-11-10T14:09:18;100438.34;;;15.98;100.00
73817;BME280;62146;53.232;-1.304;2022-11-10T14:11:52;100432.19;;;15.97;100.00
73817;BME280;62146;53.232;-1.304;2022-11-10T14:14:28;100432.19;;;15.97;100.00
73817;BME280;62146;53.232;-1.304;2022-11-10T14:16:55;100429.78;;;15.96;100.00
73817;BME280;62146;53.232;-1.304;2022-11-10T14:19:30;100434.59;;;15.94;100.00
73817;BME280;62146;53.232;-1.304;2022-11-10T14:22:09;100433.00;;;15.93;100.00
73817;BME280;62146;53.232;-1.304;2022-11-10T14:25:27;100441.03;;;15.93;100.00